createdAt,value
2023-02-23T00:01:54.977Z,18.30
2023-02-23T00:04:23.477Z,17.73
2023-02-23T00:06:52.092Z,18.10
2023-02-23T00:09:24.406Z,18.40
2023-02-23T00:11:53.786Z,18.73
2023-02-23T00:14:23.121Z,18.90
2023-02-23T00:16:51.104Z,18.50
2023-02-23T00:19:20.906Z,18.52
2023-02-23T00:21:48.698Z,20.27
2023-02-23T00:24:18.972Z,18.70
2023-02-23T00:26:48.132Z,20.10
2023-02-23T00:29:18.143Z,19.30
2023-02-23T00:31:46.718Z,18.65
2023-02-23T00:34:16.465Z,19.38
2023-02-23T00:36:45.563Z,18.73
2023-02-23T00:39:18.465Z,18.35
2023-02-23T00:41:47.306Z,18.27
2023-02-23T00:44:16.203Z,20.25
2023-02-23T00:46:45.306Z,20.08
2023-02-23T00:49:14.631Z,18.92
2023-02-23T00:51:42.896Z,19.35
2023-02-23T00:54:14.124Z,18.60
2023-02-23T00:56:41.975Z,19.13
2023-02-23T00:59:10.154Z,18.55
2023-02-23T01:01:38.494Z,19.55
2023-02-23T01:04:07.155Z,18.98
2023-02-23T01:06:37.435Z,19.15
2023-02-23T01:09:09.650Z,19.80
2023-02-23T01:11:38.845Z,19.90
2023-02-23T01:14:06.639Z,18.52
2023-02-23T01:16:35.935Z,19.17
2023-02-23T01:19:05.696Z,20.30
2023-02-23T01:21:36.422Z,19.05
2023-02-23T01:24:04.636Z,19.33
2023-02-23T01:26:35.527Z,20.08
2023-02-23T01:29:08.585Z,19.65
2023-02-23T01:31:37.739Z,20.08
2023-02-23T01:34:06.896Z,19.27
2023-02-23T01:36:36.655Z,19.77
2023-02-23T01:39:07.507Z,20.67
2023-02-23T01:41:37.168Z,20.70
2023-02-23T01:44:08.460Z,20.40
2023-02-23T01:46:38.974Z,21.37
2023-02-23T01:49:09.900Z,21.03
2023-02-23T01:51:42.985Z,21.00
2023-02-23T01:54:15.790Z,20.40
2023-02-23T01:56:46.552Z,20.58
2023-02-23T01:59:16.561Z,20.80
2023-02-23T02:01:45.429Z,21.42
2023-02-23T02:04:16.420Z,21.50
2023-02-23T02:06:47.829Z,22.27
2023-02-23T02:09:19.608Z,21.73
2023-02-23T02:11:54.000Z,20.70
2023-02-23T02:14:27.551Z,20.95
2023-02-23T02:17:17.056Z,21.15
2023-02-23T02:20:42.847Z,21.48
2023-02-23T02:23:48.193Z,21.88
2023-02-23T02:26:24.170Z,21.17
2023-02-23T02:29:46.143Z,20.88
2023-02-23T02:33:01.953Z,22.30
2023-02-23T02:36:17.637Z,21.73
2023-02-23T02:38:58.788Z,22.42
2023-02-23T02:41:36.873Z,21.85
2023-02-23T02:44:16.105Z,22.13
2023-02-23T02:46:49.477Z,22.52
2023-02-23T02:49:26.629Z,21.83
2023-02-23T02:52:01.176Z,21.97
2023-02-23T02:54:36.869Z,21.40
2023-02-23T02:57:06.500Z,22.03
2023-02-23T03:00:01.792Z,21.55
2023-02-23T03:02:47.835Z,21.20
2023-02-23T03:05:34.696Z,21.42
2023-02-23T03:08:27.880Z,22.33
2023-02-23T03:11:21.192Z,22.25
2023-02-23T03:14:18.771Z,22.38
2023-02-23T03:17:11.471Z,23.05
2023-02-23T03:20:06.904Z,23.40
2023-02-23T03:22:58.890Z,22.75
2023-02-23T03:25:50.514Z,22.95
2023-02-23T03:28:40.705Z,23.10
2023-02-23T03:31:33.232Z,22.90
2023-02-23T03:34:26.017Z,23.63
2023-02-23T03:37:20.040Z,23.05
2023-02-23T03:40:10.931Z,23.27
2023-02-23T03:42:58.300Z,22.88
2023-02-23T03:45:47.033Z,23.27
2023-02-23T03:48:36.902Z,21.95
2023-02-23T03:51:25.724Z,23.80
2023-02-23T03:54:17.105Z,23.65
2023-02-23T03:57:09.102Z,23.02
2023-02-23T04:00:01.085Z,24.52
2023-02-23T04:02:49.397Z,25.27
2023-02-23T04:05:38.183Z,23.98
2023-02-23T04:08:28.195Z,23.77
2023-02-23T04:11:18.798Z,25.20
2023-02-23T04:13:50.984Z,24.23
2023-02-23T04:16:18.463Z,24.27
2023-02-23T04:18:47.638Z,25.35
2023-02-23T04:21:15.396Z,25.27
2023-02-23T04:23:44.060Z,24.20
2023-02-23T04:26:11.840Z,23.93
2023-02-23T04:28:39.694Z,24.38
2023-02-23T04:31:07.511Z,23.33
2023-02-23T04:33:35.275Z,22.40
2023-02-23T04:36:04.809Z,24.10
2023-02-23T04:38:32.590Z,23.13
2023-02-23T04:41:00.361Z,24.15
2023-02-23T04:43:28.384Z,23.70
2023-02-23T04:45:56.148Z,23.85
2023-02-23T04:48:25.033Z,23.58
2023-02-23T04:50:53.771Z,23.10
2023-02-23T04:53:22.934Z,24.33
2023-02-23T04:55:50.737Z,23.83
2023-02-23T04:58:18.549Z,24.23
2023-02-23T05:00:46.397Z,23.88
2023-02-23T05:03:14.350Z,23.23
2023-02-23T05:05:42.144Z,23.50
2023-02-23T05:08:10.470Z,23.13
2023-02-23T05:10:40.454Z,22.42
2023-02-23T05:13:08.506Z,23.83
2023-02-23T05:15:37.003Z,24.45
2023-02-23T05:18:05.279Z,25.02
2023-02-23T05:20:33.067Z,24.83
2023-02-23T05:23:00.817Z,23.23
2023-02-23T05:25:28.658Z,23.17
2023-02-23T05:27:57.785Z,23.90
2023-02-23T05:30:25.580Z,22.48
2023-02-23T05:32:53.460Z,24.77
2023-02-23T05:35:21.217Z,24.25
2023-02-23T05:37:49.003Z,24.38
2023-02-23T05:40:16.916Z,24.90
2023-02-23T05:42:45.051Z,25.90
2023-02-23T05:45:14.508Z,23.75
2023-02-23T05:47:42.279Z,25.10
2023-02-23T05:50:12.432Z,24.55
2023-02-23T05:52:41.877Z,25.38
2023-02-23T05:55:12.478Z,23.75
2023-02-23T05:57:40.883Z,23.13
2023-02-23T06:00:09.994Z,22.63
2023-02-23T06:02:39.236Z,25.25
2023-02-23T06:05:08.185Z,24.20
2023-02-23T06:07:35.990Z,24.15
2023-02-23T06:10:03.857Z,23.30
2023-02-23T06:12:31.752Z,23.73
2023-02-23T06:14:59.497Z,23.98
2023-02-23T06:17:27.376Z,24.38
2023-02-23T06:19:56.499Z,23.37
2023-02-23T06:22:24.252Z,22.05
2023-02-23T06:24:52.050Z,22.88
2023-02-23T06:27:19.820Z,23.55
2023-02-23T06:29:47.601Z,22.55
2023-02-23T06:32:15.517Z,22.27
2023-02-23T06:34:44.769Z,21.85
2023-02-23T06:37:13.959Z,22.52
2023-02-23T06:39:41.785Z,22.13
2023-02-23T06:42:09.552Z,21.05
2023-02-23T06:44:37.700Z,21.03
2023-02-23T06:47:06.464Z,20.33
2023-02-23T06:49:34.440Z,21.33
2023-02-23T06:52:02.191Z,20.75
2023-02-23T06:54:31.449Z,20.92
2023-02-23T06:56:59.222Z,21.75
2023-02-23T06:59:27.092Z,21.55
2023-02-23T07:01:54.949Z,22.35
2023-02-23T07:04:22.776Z,21.90
2023-02-23T07:06:50.655Z,21.75
2023-02-23T07:09:18.526Z,21.42
2023-02-23T07:11:47.815Z,21.95
2023-02-23T07:14:26.207Z,21.70
2023-02-23T07:16:54.763Z,21.20
2023-02-23T07:19:23.293Z,21.10
2023-02-23T07:21:51.107Z,20.90
2023-02-23T07:24:18.916Z,21.03
2023-02-23T07:26:49.202Z,21.42
2023-02-23T07:29:17.465Z,21.07
2023-02-23T07:31:45.598Z,20.20
2023-02-23T07:34:13.458Z,20.10
2023-02-23T07:36:41.377Z,19.42
2023-02-23T07:39:09.299Z,20.33
2023-02-23T07:41:37.408Z,19.70
2023-02-23T07:44:07.177Z,20.88
2023-02-23T07:46:35.012Z,19.77
2023-02-23T07:49:02.807Z,20.50
2023-02-23T07:51:30.606Z,19.95
2023-02-23T07:54:03.528Z,19.90
2023-02-23T07:56:31.289Z,19.70
2023-02-23T07:58:59.140Z,18.88
2023-02-23T08:01:28.470Z,18.00
2023-02-23T08:03:56.290Z,18.33
2023-02-23T08:06:24.102Z,18.40
2023-02-23T08:08:51.967Z,17.67
2023-02-23T08:11:20.015Z,17.63
2023-02-23T08:13:48.023Z,17.20
2023-02-23T08:16:16.568Z,18.58
2023-02-23T08:18:46.126Z,17.58
2023-02-23T08:21:13.934Z,18.08
2023-02-23T08:23:41.761Z,18.20
2023-02-23T08:26:09.532Z,18.23
2023-02-23T08:28:37.309Z,17.70
2023-02-23T08:31:09.578Z,18.50
2023-02-23T08:33:38.673Z,18.20
2023-02-23T08:36:08.765Z,18.23
2023-02-23T08:38:37.336Z,17.35
2023-02-23T08:41:06.616Z,18.15
2023-02-23T08:43:34.403Z,18.58
2023-02-23T08:46:02.258Z,17.95
2023-02-23T08:48:29.999Z,18.20
2023-02-23T08:50:58.522Z,18.20
2023-02-23T08:53:29.529Z,18.85
2023-02-23T08:55:58.558Z,18.10
2023-02-23T08:58:26.436Z,17.88
2023-02-23T09:00:54.472Z,17.35
2023-02-23T09:03:22.897Z,17.80
2023-02-23T09:05:50.959Z,18.17
2023-02-23T09:08:18.867Z,18.13
2023-02-23T09:10:48.002Z,18.13
2023-02-23T09:13:17.114Z,18.02
2023-02-23T09:15:44.962Z,17.65
2023-02-23T09:18:14.652Z,17.80
2023-02-23T09:20:43.390Z,17.73
2023-02-23T09:23:11.464Z,17.35
2023-02-23T09:25:43.209Z,16.17
2023-02-23T09:28:13.341Z,16.73
2023-02-23T09:30:41.773Z,16.45
2023-02-23T09:33:10.163Z,15.55
2023-02-23T09:35:38.717Z,16.27
2023-02-23T09:38:08.310Z,15.57
2023-02-23T09:40:45.284Z,14.05
2023-02-23T09:43:18.093Z,14.43
2023-02-23T09:45:52.099Z,13.52
2023-02-23T09:48:22.227Z,12.88
2023-02-23T09:50:52.331Z,13.10
2023-02-23T09:53:33.882Z,13.32
2023-02-23T09:56:04.054Z,13.32
2023-02-23T09:58:35.526Z,13.60
2023-02-23T10:01:46.298Z,13.10
2023-02-23T10:04:19.858Z,12.85
2023-02-23T10:06:55.444Z,11.85
2023-02-23T10:09:29.093Z,11.32
2023-02-23T10:12:03.801Z,10.55
2023-02-23T10:14:52.817Z,10.95
2023-02-23T10:17:30.156Z,10.52
2023-02-23T10:20:04.230Z,9.75
2023-02-23T10:22:34.692Z,10.10
2023-02-23T10:25:07.260Z,9.65
2023-02-23T10:27:41.936Z,9.67
2023-02-23T10:30:19.923Z,9.30
2023-02-23T10:32:53.384Z,10.20
2023-02-23T10:35:23.071Z,9.68
2023-02-23T10:37:52.545Z,9.80
2023-02-23T10:40:23.415Z,10.05
2023-02-23T10:42:51.632Z,10.10
2023-02-23T10:45:24.534Z,10.32
2023-02-23T10:47:57.776Z,10.00
2023-02-23T10:50:28.830Z,10.00
2023-02-23T10:53:00.857Z,10.05
2023-02-23T10:55:30.615Z,10.13
2023-02-23T10:58:10.649Z,10.60
2023-02-23T11:00:41.464Z,10.30
2023-02-23T11:03:20.080Z,9.95
2023-02-23T11:05:53.117Z,9.45
2023-02-23T11:08:24.036Z,9.93
2023-02-23T11:11:03.082Z,10.07
2023-02-23T11:13:36.425Z,9.75
2023-02-23T11:16:10.139Z,9.90
2023-02-23T11:18:40.184Z,10.00
2023-02-23T11:21:13.287Z,10.32
2023-02-23T11:23:42.447Z,10.57
2023-02-23T11:26:33.356Z,11.15
2023-02-23T11:29:11.097Z,10.63
2023-02-23T11:31:41.001Z,10.88
2023-02-23T11:34:08.969Z,11.18
2023-02-23T11:36:38.383Z,11.45
2023-02-23T11:39:16.657Z,11.70
2023-02-23T11:41:44.650Z,11.50
2023-02-23T11:44:22.030Z,11.43
2023-02-23T11:46:52.490Z,9.93
2023-02-23T11:49:23.658Z,9.20
2023-02-23T11:51:54.354Z,9.98
2023-02-23T11:54:26.821Z,8.80
2023-02-23T11:56:55.393Z,9.13
2023-02-23T11:59:30.849Z,8.57
2023-02-23T12:02:06.890Z,9.32
2023-02-23T12:04:38.089Z,9.55
2023-02-23T12:07:41.306Z,10.00
2023-02-23T12:10:15.567Z,10.30
2023-02-23T12:12:54.643Z,9.93
2023-02-23T12:15:31.392Z,10.50
2023-02-23T12:18:06.647Z,10.10
2023-02-23T12:20:42.256Z,8.68
2023-02-23T12:23:13.482Z,8.45
2023-02-23T12:25:47.406Z,8.50
2023-02-23T12:28:21.680Z,7.80
2023-02-23T12:30:52.364Z,8.32
2023-02-23T12:33:30.080Z,8.18
2023-02-23T12:36:01.660Z,7.18
2023-02-23T12:38:48.625Z,8.02
2023-02-23T12:41:21.120Z,7.07
2023-02-23T12:43:51.717Z,6.75
2023-02-23T12:46:23.939Z,7.13
2023-02-23T12:49:01.423Z,6.90
2023-02-23T12:51:34.152Z,6.43
2023-02-23T12:54:02.317Z,6.18
2023-02-23T12:56:58.571Z,6.50
2023-02-23T12:59:49.766Z,6.10
2023-02-23T13:02:25.746Z,6.40
2023-02-23T13:05:17.210Z,6.60
2023-02-23T13:07:59.285Z,7.15
2023-02-23T13:10:46.968Z,6.13
2023-02-23T13:13:26.695Z,5.38
2023-02-23T13:16:04.300Z,4.95
2023-02-23T13:18:38.229Z,4.85
2023-02-23T13:21:16.070Z,8.38
2023-02-23T13:23:55.634Z,4.78
2023-02-23T13:26:31.318Z,4.60
2023-02-23T13:29:03.804Z,4.53
2023-02-23T13:31:35.396Z,4.25
2023-02-23T13:34:04.609Z,3.30
2023-02-23T13:36:35.354Z,3.53
2023-02-23T13:39:36.228Z,3.78
2023-02-23T13:42:17.558Z,3.50
2023-02-23T13:44:50.728Z,3.30
2023-02-23T13:47:39.522Z,2.90
2023-02-23T13:50:22.418Z,2.95
2023-02-23T13:52:58.175Z,2.95
2023-02-23T13:55:51.581Z,3.20
2023-02-23T13:58:23.354Z,2.60
2023-02-23T14:01:05.076Z,2.95
2023-02-23T14:03:38.004Z,3.10
2023-02-23T14:06:07.707Z,2.90
2023-02-23T14:08:39.967Z,3.15
2023-02-23T14:11:07.966Z,2.90
2023-02-23T14:13:41.123Z,3.00
2023-02-23T14:16:20.635Z,3.00
2023-02-23T14:18:57.774Z,3.05
2023-02-23T14:21:33.726Z,3.13
2023-02-23T14:24:17.360Z,3.10
2023-02-23T14:27:07.318Z,3.10
2023-02-23T14:29:41.026Z,3.22
2023-02-23T14:32:30.865Z,3.00
2023-02-23T14:35:00.740Z,2.97
2023-02-23T14:37:32.527Z,2.90
2023-02-23T14:40:12.636Z,3.55
2023-02-23T14:42:41.561Z,3.30
2023-02-23T14:45:20.178Z,3.65
2023-02-23T14:47:49.401Z,3.30
2023-02-23T14:50:25.636Z,3.50
2023-02-23T14:52:56.113Z,3.60
2023-02-23T14:55:29.099Z,3.35
2023-02-23T14:57:58.020Z,3.70
2023-02-23T15:00:28.031Z,3.72
2023-02-23T15:02:59.195Z,3.65
2023-02-23T15:05:29.688Z,3.83
2023-02-23T15:08:00.864Z,3.67
2023-02-23T15:10:33.967Z,3.90
2023-02-23T15:13:08.650Z,3.78
2023-02-23T15:15:39.181Z,3.38
2023-02-23T15:18:06.982Z,3.55
2023-02-23T15:23:04.342Z,4.00
2023-02-23T15:25:39.692Z,3.97
2023-02-23T15:28:29.501Z,3.97
2023-02-23T15:31:01.200Z,4.10
2023-02-23T15:33:30.161Z,3.88
2023-02-23T15:36:10.237Z,3.95
2023-02-23T15:38:44.548Z,4.50
2023-02-23T15:41:26.336Z,4.10
2023-02-23T15:43:56.081Z,4.53
2023-02-23T15:46:27.667Z,4.47
2023-02-23T15:49:00.616Z,4.77
2023-02-23T15:51:35.046Z,4.65
2023-02-23T15:54:07.729Z,4.60
2023-02-23T15:56:38.025Z,4.60
2023-02-23T15:59:12.919Z,4.53
2023-02-23T16:01:44.935Z,4.53
2023-02-23T16:04:18.295Z,4.13
2023-02-23T16:06:55.098Z,4.65
2023-02-23T16:09:28.395Z,4.60
2023-02-23T16:12:03.076Z,4.93
2023-02-23T16:14:36.043Z,4.50
2023-02-23T16:17:11.476Z,4.50
2023-02-23T16:19:41.602Z,4.55
2023-02-23T16:22:24.639Z,4.80
2023-02-23T16:24:59.658Z,4.50
2023-02-23T16:27:30.207Z,5.00
2023-02-23T16:30:02.064Z,4.88
2023-02-23T16:32:39.341Z,5.00
2023-02-23T16:35:16.698Z,5.47
2023-02-23T16:37:56.497Z,5.45
2023-02-23T16:40:24.284Z,4.55
2023-02-23T16:42:58.911Z,4.47
2023-02-23T16:45:27.444Z,4.70
2023-02-23T16:48:01.676Z,4.75
2023-02-23T16:50:30.141Z,4.60
2023-02-23T16:52:57.905Z,4.93
2023-02-23T16:55:28.012Z,4.60
2023-02-23T16:58:00.010Z,5.10
2023-02-23T17:00:30.553Z,5.13
2023-02-23T17:03:00.468Z,5.43
2023-02-23T17:05:30.035Z,5.20
2023-02-23T17:07:58.910Z,4.88
2023-02-23T17:10:29.333Z,5.05
2023-02-23T17:12:59.944Z,4.88
2023-02-23T17:15:30.876Z,5.40
2023-02-23T17:17:58.777Z,6.07
2023-02-23T17:20:29.481Z,6.45
2023-02-23T17:22:59.310Z,6.55
2023-02-23T17:25:27.371Z,6.47
2023-02-23T17:27:55.227Z,7.00
2023-02-23T17:30:25.167Z,6.15
2023-02-23T17:32:54.578Z,6.50
2023-02-23T17:35:23.549Z,6.55
2023-02-23T17:37:51.449Z,6.28
2023-02-23T17:40:26.238Z,7.00
2023-02-23T17:42:54.153Z,6.25
2023-02-23T17:45:22.434Z,6.07
2023-02-23T17:47:51.870Z,6.88
2023-02-23T17:50:21.471Z,7.25
2023-02-23T17:52:49.556Z,7.30
2023-02-23T17:55:18.187Z,8.10
2023-02-23T17:57:46.495Z,7.18
2023-02-23T18:00:16.261Z,7.35
2023-02-23T18:02:45.124Z,8.70
2023-02-23T18:05:15.112Z,8.27
2023-02-23T18:07:43.284Z,8.60
2023-02-23T18:10:13.193Z,8.07
2023-02-23T18:12:41.126Z,9.02
2023-02-23T18:15:09.546Z,9.88
2023-02-23T18:17:37.408Z,9.80
2023-02-23T18:20:06.944Z,8.90
2023-02-23T18:22:36.120Z,8.32
2023-02-23T18:25:04.155Z,9.15
2023-02-23T18:27:31.931Z,10.50
2023-02-23T18:29:59.993Z,10.43
2023-02-23T18:32:28.061Z,9.57
2023-02-23T18:34:56.786Z,10.13
2023-02-23T18:37:28.850Z,10.13
2023-02-23T18:39:59.257Z,8.90
2023-02-23T18:42:27.141Z,9.48
2023-02-23T18:44:54.965Z,9.80
2023-02-23T18:47:22.939Z,9.63
2023-02-23T18:49:52.630Z,10.23
2023-02-23T18:52:20.465Z,10.20
2023-02-23T18:54:48.319Z,10.57
2023-02-23T18:57:17.426Z,10.85
2023-02-23T18:59:45.989Z,10.67
2023-02-23T19:02:13.777Z,9.90
2023-02-23T19:04:41.741Z,10.63
2023-02-23T19:07:09.564Z,10.50
2023-02-23T19:09:40.657Z,9.98
2023-02-23T19:12:08.753Z,9.80
2023-02-23T19:14:49.165Z,11.07
2023-02-23T19:17:17.568Z,10.50
2023-02-23T19:19:45.411Z,11.25
2023-02-23T19:22:13.182Z,11.18
2023-02-23T19:24:41.773Z,11.82
2023-02-23T19:27:10.021Z,11.25
2023-02-23T19:29:39.412Z,11.52
2023-02-23T19:32:07.405Z,8.90
2023-02-23T19:34:35.348Z,10.52
2023-02-23T19:37:03.326Z,9.82
2023-02-23T19:39:31.092Z,9.73
2023-02-23T19:41:59.018Z,10.23
2023-02-23T19:44:26.875Z,10.70
2023-02-23T19:46:56.915Z,10.65
2023-02-23T19:49:25.562Z,9.43
2023-02-23T19:51:53.841Z,9.60
2023-02-23T19:54:21.961Z,10.55
2023-02-23T19:56:50.521Z,11.38
2023-02-23T19:59:18.323Z,12.80
2023-02-23T20:01:46.205Z,13.43
2023-02-23T20:04:15.446Z,14.17
2023-02-23T20:06:46.840Z,14.65
2023-02-23T20:09:16.539Z,14.38
2023-02-23T20:11:44.346Z,14.95
2023-02-23T20:14:12.413Z,13.10
2023-02-23T20:16:40.379Z,13.48
2023-02-23T20:19:08.206Z,13.20
2023-02-23T20:21:37.608Z,13.05
2023-02-23T20:24:06.395Z,13.70
2023-02-23T20:26:36.776Z,14.23
2023-02-23T20:29:06.642Z,14.90
2023-02-23T20:31:36.751Z,15.02
2023-02-23T20:34:07.526Z,14.10
2023-02-23T20:36:36.746Z,14.30
2023-02-23T20:39:05.127Z,14.57
2023-02-23T20:41:32.913Z,13.75
2023-02-23T20:44:01.616Z,14.30
2023-02-23T20:46:30.394Z,14.30
2023-02-23T20:48:59.522Z,14.10
2023-02-23T20:51:28.225Z,15.05
2023-02-23T20:53:57.337Z,16.15
2023-02-23T20:56:25.418Z,15.65
2023-02-23T20:58:54.218Z,13.93
2023-02-23T21:01:25.770Z,14.03
2023-02-23T21:03:54.948Z,17.20
2023-02-23T21:06:25.262Z,16.73
2023-02-23T21:08:55.683Z,16.00
2023-02-23T21:11:26.437Z,16.13
2023-02-23T21:13:54.521Z,16.67
2023-02-23T21:16:24.153Z,17.48
2023-02-23T21:18:56.821Z,16.52
2023-02-23T21:21:24.632Z,17.02
2023-02-23T21:23:52.413Z,16.75
2023-02-23T21:26:21.504Z,16.00
2023-02-23T21:28:50.734Z,16.58
2023-02-23T21:31:19.000Z,16.90
2023-02-23T21:33:47.044Z,16.98
2023-02-23T21:36:15.169Z,16.90
2023-02-23T21:38:44.958Z,15.82
2023-02-23T21:41:14.201Z,15.77
2023-02-23T21:43:45.047Z,15.95
2023-02-23T21:46:15.563Z,15.73
2023-02-23T21:48:44.396Z,15.82
2023-02-23T21:51:14.632Z,15.73
2023-02-23T21:53:43.579Z,14.63
2023-02-23T21:56:14.225Z,14.43
2023-02-23T21:58:47.382Z,14.77
2023-02-23T22:01:18.341Z,14.82
2023-02-23T22:03:47.152Z,14.80
2023-02-23T22:06:17.227Z,15.55
2023-02-23T22:08:45.063Z,14.75
2023-02-23T22:11:17.204Z,12.80
2023-02-23T22:13:45.576Z,13.20
2023-02-23T22:16:14.318Z,13.73
2023-02-23T22:18:43.879Z,14.13
2023-02-23T22:21:12.664Z,14.00
2023-02-23T22:23:41.437Z,14.40
2023-02-23T22:26:09.307Z,13.45
2023-02-23T22:28:37.470Z,13.13
2023-02-23T22:31:08.195Z,12.57
2023-02-23T22:33:36.400Z,11.68
2023-02-23T22:36:07.999Z,12.98
2023-02-23T22:38:36.089Z,14.40
2023-02-23T22:41:06.124Z,13.38
2023-02-23T22:43:34.226Z,13.88
2023-02-23T22:46:02.059Z,13.23
2023-02-23T22:48:29.856Z,12.90
2023-02-23T22:50:57.691Z,12.80
2023-02-23T22:53:27.674Z,12.82
2023-02-23T22:55:56.733Z,13.32
2023-02-23T22:58:26.237Z,13.45
2023-02-23T23:01:04.014Z,13.82
2023-02-23T23:03:34.612Z,13.57
2023-02-23T23:06:04.486Z,13.23
2023-02-23T23:08:36.769Z,13.18
2023-02-23T23:11:09.323Z,13.27
2023-02-23T23:13:43.113Z,13.13
2023-02-23T23:16:16.839Z,12.37
2023-02-23T23:18:54.270Z,12.52
2023-02-23T23:21:24.416Z,11.85
2023-02-23T23:23:55.836Z,12.98
2023-02-23T23:26:25.636Z,13.07
2023-02-23T23:28:55.425Z,12.57
2023-02-23T23:31:28.012Z,11.88
2023-02-23T23:34:00.060Z,12.48
2023-02-23T23:36:33.317Z,11.48
2023-02-23T23:39:03.788Z,10.65
2023-02-23T23:41:35.255Z,11.40
2023-02-23T23:44:05.086Z,10.63
2023-02-23T23:46:35.663Z,10.52
2023-02-23T23:49:05.960Z,11.57
2023-02-23T23:51:38.870Z,12.20
2023-02-23T23:54:09.612Z,12.30
2023-02-23T23:56:37.799Z,13.10
2023-02-23T23:59:07.482Z,13.63
